createdAt,value
2019-02-11T00:01:11.986Z,99785.81
2019-02-11T00:03:41.238Z,99796.59
2019-02-11T00:06:10.548Z,99802.27
2019-02-11T00:08:39.788Z,99810.14
2019-02-11T00:11:09.025Z,99822.42
2019-02-11T00:13:38.274Z,99829.73
2019-02-11T00:16:07.576Z,99840.16
2019-02-11T00:18:36.827Z,99843.59
2019-02-11T00:21:06.078Z,99858.89
2019-02-11T00:23:35.324Z,99858.89
2019-02-11T00:26:04.618Z,99881.56
2019-02-11T00:28:33.914Z,99885.86
2019-02-11T00:31:03.192Z,99910.90
2019-02-11T00:33:32.484Z,99903.34
2019-02-11T00:36:01.746Z,99914.24
2019-02-11T00:38:31.004Z,99922.05
2019-02-11T00:41:00.281Z,99928.58
2019-02-11T00:43:29.527Z,99939.94
2019-02-11T00:45:58.754Z,99949.91
2019-02-11T00:48:28.004Z,99961.27
2019-02-11T00:50:57.339Z,99979.19
2019-02-11T00:53:26.593Z,99982.20
2019-02-11T00:55:55.922Z,99991.40
2019-02-11T00:58:25.233Z,99994.09
2019-02-11T01:00:54.632Z,100000.56
2019-02-11T01:03:23.925Z,100009.39
2019-02-11T01:05:53.216Z,100001.05
2019-02-11T01:08:22.586Z,100019.40
2019-02-11T01:10:51.843Z,100028.13
2019-02-11T01:13:27.442Z,100024.22
2019-02-11T01:15:50.383Z,100024.13
2019-02-11T01:18:19.638Z,100042.94
2019-02-11T01:20:48.927Z,100041.16
2019-02-11T01:23:18.184Z,100045.95
2019-02-11T01:25:47.506Z,100047.73
2019-02-11T01:28:16.819Z,100046.35
2019-02-11T01:30:46.136Z,100068.73
2019-02-11T01:33:15.450Z,100082.27
2019-02-11T01:35:44.742Z,100085.74
2019-02-11T01:38:13.994Z,100097.66
2019-02-11T01:40:43.254Z,100101.23
2019-02-11T01:43:12.487Z,100098.11
2019-02-11T01:45:41.806Z,100067.28
2019-02-11T01:48:11.044Z,100106.05
2019-02-11T01:50:40.383Z,100120.86
2019-02-11T01:53:09.648Z,100123.06
2019-02-11T01:55:38.991Z,100123.98
2019-02-11T01:58:08.268Z,100134.53
2019-02-11T02:00:37.582Z,100137.16
2019-02-11T02:03:06.851Z,100136.84
2019-02-11T02:05:36.228Z,100142.59
2019-02-11T02:08:05.482Z,100141.64
2019-02-11T02:10:34.776Z,100143.35
2019-02-11T02:13:04.076Z,100150.74
2019-02-11T02:15:33.421Z,100155.16
2019-02-11T02:18:02.632Z,100164.33
2019-02-11T02:20:31.912Z,100163.32
2019-02-11T02:23:01.163Z,100168.23
2019-02-11T02:25:30.438Z,100175.59
2019-02-11T02:27:59.775Z,100175.97
2019-02-11T02:30:29.731Z,100177.19
2019-02-11T02:32:58.953Z,100179.05
2019-02-11T02:35:28.315Z,100187.75
2019-02-11T02:37:57.714Z,100191.23
2019-02-11T02:40:26.981Z,100211.41
2019-02-11T02:42:56.282Z,100213.16
2019-02-11T02:45:25.550Z,100211.41
2019-02-11T02:47:54.798Z,100221.05
2019-02-11T02:50:24.220Z,100244.20
2019-02-11T02:52:53.486Z,100227.94
2019-02-11T02:55:22.825Z,100234.45
2019-02-11T02:57:52.199Z,100250.20
2019-02-11T03:00:21.504Z,100240.95
2019-02-11T03:02:50.858Z,100248.80
2019-02-11T03:05:20.105Z,100257.93
2019-02-11T03:07:49.423Z,100257.93
2019-02-11T03:10:18.663Z,100272.72
2019-02-11T03:12:47.913Z,100271.81
2019-02-11T03:15:17.207Z,100274.41
2019-02-11T03:17:46.520Z,100273.95
2019-02-11T03:20:15.827Z,100273.47
2019-02-11T03:22:45.077Z,100289.34
2019-02-11T03:25:14.356Z,100284.00
2019-02-11T03:27:43.732Z,100303.16
2019-02-11T03:30:13.141Z,100310.16
2019-02-11T03:32:42.436Z,100307.06
2019-02-11T03:35:11.820Z,100309.78
2019-02-11T03:37:41.120Z,100310.09
2019-02-11T03:40:10.396Z,100320.48
2019-02-11T03:42:39.742Z,100331.02
2019-02-11T03:45:09.752Z,100354.27
2019-02-11T03:47:38.995Z,100343.30
2019-02-11T03:50:08.848Z,100341.13
2019-02-11T03:52:38.087Z,100353.33
2019-02-11T03:55:07.387Z,100343.76
2019-02-11T03:57:36.650Z,100356.89
2019-02-11T04:00:06.709Z,100357.34
2019-02-11T04:02:35.957Z,100375.81
2019-02-11T04:05:05.900Z,100389.75
2019-02-11T04:07:35.187Z,100399.75
2019-02-11T04:10:05.211Z,100393.13
2019-02-11T04:12:34.465Z,100393.27
2019-02-11T04:15:03.931Z,100421.35
2019-02-11T04:17:33.235Z,100406.42
2019-02-11T04:20:02.705Z,100418.33
2019-02-11T04:22:31.993Z,100413.98
2019-02-11T04:25:01.254Z,100423.58
2019-02-11T04:27:30.486Z,100438.88
2019-02-11T04:29:59.823Z,100434.99
2019-02-11T04:32:29.107Z,100439.36
2019-02-11T04:34:58.387Z,100437.11
2019-02-11T04:37:27.693Z,100452.45
2019-02-11T04:39:57.049Z,100457.19
2019-02-11T04:42:26.286Z,100457.32
2019-02-11T04:44:55.563Z,100469.56
2019-02-11T04:47:24.826Z,100473.81
2019-02-11T04:49:54.167Z,100479.57
2019-02-11T04:52:23.530Z,100487.92
2019-02-11T04:54:52.824Z,100481.69
2019-02-11T04:57:22.209Z,100498.28
2019-02-11T04:59:51.491Z,100497.83
2019-02-11T05:02:20.745Z,100495.18
2019-02-11T05:04:50.046Z,100509.62
2019-02-11T05:07:19.286Z,100507.45
2019-02-11T05:09:48.616Z,100514.41
2019-02-11T05:12:17.854Z,100519.53
2019-02-11T05:14:47.122Z,100515.56
2019-02-11T05:17:16.393Z,100526.08
2019-02-11T05:19:45.722Z,100526.98
2019-02-11T05:22:14.944Z,100519.98
2019-02-11T05:24:44.209Z,100551.19
2019-02-11T05:27:13.495Z,100572.15
2019-02-11T05:29:42.786Z,100535.37
2019-02-11T05:32:12.038Z,100534.03
2019-02-11T05:34:41.311Z,100534.11
2019-02-11T05:37:10.598Z,100552.50
2019-02-11T05:39:39.914Z,100536.81
2019-02-11T05:42:09.164Z,100544.25
2019-02-11T05:44:38.455Z,100549.03
2019-02-11T05:47:07.677Z,100533.27
2019-02-11T05:49:36.971Z,100548.20
2019-02-11T05:52:06.211Z,100552.97
2019-02-11T05:54:35.602Z,100570.14
2019-02-11T05:57:04.920Z,100562.72
2019-02-11T05:59:34.220Z,100573.28
2019-02-11T06:02:03.535Z,100574.06
2019-02-11T06:04:33.098Z,100578.48
2019-02-11T06:07:02.599Z,100583.33
2019-02-11T06:09:31.872Z,100589.05
2019-02-11T06:12:01.141Z,100623.20
2019-02-11T06:14:30.456Z,100598.70
2019-02-11T06:16:59.751Z,100615.80
2019-02-11T06:19:29.115Z,100611.84
2019-02-11T06:21:58.405Z,100629.92
2019-02-11T06:24:27.739Z,100625.14
2019-02-11T06:26:57.070Z,100627.28
2019-02-11T06:29:26.453Z,100634.79
2019-02-11T06:31:55.725Z,100639.17
2019-02-11T06:34:25.111Z,100646.92
2019-02-11T06:36:54.370Z,100651.39
2019-02-11T06:39:23.700Z,100659.73
2019-02-11T06:41:53.024Z,100661.48
2019-02-11T06:44:22.682Z,100661.89
2019-02-11T06:46:51.924Z,100669.76
2019-02-11T06:49:21.438Z,100671.56
2019-02-11T06:51:50.724Z,100672.80
2019-02-11T06:54:20.231Z,100682.45
2019-02-11T06:56:49.604Z,100690.39
2019-02-11T06:59:19.132Z,100691.63
2019-02-11T07:01:48.383Z,100692.48
2019-02-11T07:04:17.691Z,100700.84
2019-02-11T07:06:46.979Z,100707.80
2019-02-11T07:09:16.240Z,100711.54
2019-02-11T07:11:45.581Z,100719.52
2019-02-11T07:14:14.897Z,100725.84
2019-02-11T07:16:44.184Z,100730.23
2019-02-11T07:19:13.476Z,100749.15
2019-02-11T07:21:42.740Z,100736.94
2019-02-11T07:24:12.003Z,100744.38
2019-02-11T07:26:41.313Z,100763.75
2019-02-11T07:29:10.585Z,100780.02
2019-02-11T07:31:39.854Z,100770.83
2019-02-11T07:34:09.199Z,100783.97
2019-02-11T07:36:38.484Z,100787.06
2019-02-11T07:39:09.376Z,100786.72
2019-02-11T07:42:00.739Z,100795.84
2019-02-11T07:44:34.958Z,100819.59
2019-02-11T07:47:04.743Z,100814.02
2019-02-11T07:49:33.998Z,100820.23
2019-02-11T07:52:03.271Z,100830.30
2019-02-11T07:54:32.575Z,100836.40
2019-02-11T07:57:01.866Z,100843.83
2019-02-11T07:59:31.157Z,100841.25
2019-02-11T08:02:00.390Z,100854.03
2019-02-11T08:04:29.798Z,100844.32
2019-02-11T08:06:59.145Z,100859.70
2019-02-11T08:09:28.498Z,100858.83
2019-02-11T08:11:58.030Z,100876.40
2019-02-11T08:14:27.304Z,100874.58
2019-02-11T08:16:56.593Z,100880.19
2019-02-11T08:19:25.951Z,100886.63
2019-02-11T08:21:55.217Z,100887.05
2019-02-11T08:24:24.462Z,100900.67
2019-02-11T08:26:53.759Z,100906.38
2019-02-11T08:29:23.042Z,100914.67
2019-02-11T08:31:52.288Z,100913.25
2019-02-11T08:34:21.586Z,100924.95
2019-02-11T08:36:50.900Z,100732.00
2019-02-11T08:39:20.167Z,100940.36
2019-02-11T08:41:49.479Z,100948.20
2019-02-11T08:44:18.745Z,100955.22
2019-02-11T08:46:48.029Z,100962.23
2019-02-11T08:49:17.357Z,100957.38
2019-02-11T08:51:46.671Z,100969.94
2019-02-11T08:54:15.964Z,100976.92
2019-02-11T08:56:45.353Z,100968.41
2019-02-11T08:59:14.638Z,100993.84
2019-02-11T09:01:43.862Z,100984.78
2019-02-11T09:04:18.779Z,100988.95
2019-02-11T09:06:42.559Z,100994.75
2019-02-11T09:09:11.842Z,101004.50
2019-02-11T09:11:41.084Z,101001.77
2019-02-11T09:14:10.382Z,100997.24
2019-02-11T09:16:39.783Z,101017.30
2019-02-11T09:19:09.115Z,101013.54
2019-02-11T09:21:38.446Z,101022.63
2019-02-11T09:24:07.709Z,101016.22
2019-02-11T09:26:37.110Z,101020.70
2019-02-11T09:29:06.391Z,101030.69
2019-02-11T09:31:35.781Z,101032.90
2019-02-11T09:34:05.079Z,101035.18
2019-02-11T09:36:34.392Z,101032.34
2019-02-11T09:39:03.855Z,101056.02
2019-02-11T09:41:33.101Z,101062.94
2019-02-11T09:44:02.430Z,101083.84
2019-02-11T09:46:31.702Z,101063.16
2019-02-11T09:49:00.986Z,101088.94
2019-02-11T09:51:30.756Z,101075.29
2019-02-11T09:54:00.118Z,101098.20
2019-02-11T09:56:29.487Z,101085.56
2019-02-11T09:58:58.810Z,101095.08
2019-02-11T10:01:28.228Z,101107.77
2019-02-11T10:03:57.498Z,101107.80
2019-02-11T10:06:26.888Z,101137.86
2019-02-11T10:08:56.185Z,101121.45
2019-02-11T10:11:25.484Z,101114.19
2019-02-11T10:13:54.827Z,101132.95
2019-02-11T10:16:24.198Z,101137.79
2019-02-11T10:18:53.461Z,101143.84
2019-02-11T10:21:22.800Z,101143.18
2019-02-11T10:23:52.060Z,101164.84
2019-02-11T10:26:21.362Z,101164.84
2019-02-11T10:28:50.708Z,101163.58
2019-02-11T10:31:20.006Z,101172.67
2019-02-11T10:33:49.274Z,101175.58
2019-02-11T10:36:18.758Z,101168.11
2019-02-11T10:38:48.116Z,101180.30
2019-02-11T10:41:17.747Z,101170.96
2019-02-11T10:43:47.032Z,101194.20
2019-02-11T10:46:21.103Z,101186.70
2019-02-11T10:48:45.724Z,101200.19
2019-02-11T10:51:15.010Z,101200.19
2019-02-11T10:53:44.298Z,101238.31
2019-02-11T10:56:13.563Z,101220.75
2019-02-11T10:58:42.944Z,101216.91
2019-02-11T11:01:13.405Z,101223.88
2019-02-11T11:03:41.593Z,101231.73
2019-02-11T11:06:10.938Z,101234.36
2019-02-11T11:08:40.323Z,101249.25
2019-02-11T11:11:09.660Z,101257.36
2019-02-11T11:13:38.978Z,101259.27
2019-02-11T11:16:08.293Z,101262.37
2019-02-11T11:18:37.645Z,101262.37
2019-02-11T11:21:07.047Z,101274.72
2019-02-11T11:23:36.369Z,101275.55
2019-02-11T11:26:05.679Z,101275.55
2019-02-11T11:28:34.975Z,101273.36
2019-02-11T11:31:04.230Z,101279.85
2019-02-11T11:33:33.549Z,101286.78
2019-02-11T11:36:02.881Z,101286.78
2019-02-11T11:38:32.154Z,101299.56
2019-02-11T11:41:01.612Z,101299.56
2019-02-11T11:43:30.968Z,101304.13
2019-02-11T11:46:00.273Z,101304.13
2019-02-11T11:48:29.567Z,101305.97
2019-02-11T11:50:58.883Z,101306.41
2019-02-11T11:53:28.123Z,101325.98
2019-02-11T11:56:01.950Z,101327.16
2019-02-11T11:58:27.286Z,101330.00
2019-02-11T12:00:56.181Z,101330.00
2019-02-11T12:03:25.331Z,101314.94
2019-02-11T12:05:54.673Z,101420.66
2019-02-11T12:08:24.092Z,101336.41
2019-02-11T12:10:53.441Z,101339.78
2019-02-11T12:13:23.636Z,101333.84
2019-02-11T12:15:52.095Z,101339.59
2019-02-11T12:18:21.385Z,101342.98
2019-02-11T12:20:50.705Z,101352.58
2019-02-11T12:23:20.129Z,101356.50
2019-02-11T12:25:49.271Z,101358.34
2019-02-11T12:28:18.698Z,101367.53
2019-02-11T12:30:48.019Z,101383.59
2019-02-11T12:33:17.416Z,101383.59
2019-02-11T12:35:46.691Z,101396.55
2019-02-11T12:38:16.088Z,101366.31
2019-02-11T12:40:45.459Z,101379.71
2019-02-11T12:43:14.723Z,101396.37
2019-02-11T12:45:44.134Z,101396.37
2019-02-11T12:48:13.442Z,101445.56
2019-02-11T12:50:42.719Z,101445.56
2019-02-11T12:53:12.019Z,101467.11
2019-02-11T12:55:41.270Z,101456.36
2019-02-11T12:58:10.581Z,101445.14
2019-02-11T13:00:39.911Z,101452.75
2019-02-11T13:03:09.186Z,101452.75
2019-02-11T13:05:44.775Z,101454.52
2019-02-11T13:08:07.944Z,101454.00
2019-02-11T13:10:37.237Z,101480.98
2019-02-11T13:13:07.307Z,101479.27
2019-02-11T13:15:58.758Z,101343.73
2019-02-11T13:18:05.187Z,101481.50
2019-02-11T13:20:34.538Z,101496.45
2019-02-11T13:23:03.879Z,101501.52
2019-02-11T13:25:33.290Z,101512.45
2019-02-11T13:28:02.708Z,101526.30
2019-02-11T13:30:32.146Z,101510.98
2019-02-11T13:33:01.380Z,101515.09
2019-02-11T13:35:30.666Z,101524.00
2019-02-11T13:37:59.939Z,101525.41
2019-02-11T13:40:29.316Z,101540.82
2019-02-11T13:43:05.209Z,101521.28
2019-02-11T13:45:34.548Z,101555.09
2019-02-11T13:48:04.012Z,101541.41
2019-02-11T13:50:33.380Z,101598.73
2019-02-11T13:53:02.703Z,101556.07
2019-02-11T13:55:32.286Z,101560.20
2019-02-11T13:58:01.420Z,101560.20
2019-02-11T14:00:34.467Z,101581.94
2019-02-11T14:03:05.217Z,101591.48
2019-02-11T14:05:34.724Z,101599.66
2019-02-11T14:08:04.088Z,101590.56
2019-02-11T14:10:33.380Z,101595.80
2019-02-11T14:13:05.674Z,101611.82
2019-02-11T14:15:35.680Z,101611.82
2019-02-11T14:18:14.826Z,101620.19
2019-02-11T14:20:42.237Z,101615.20
2019-02-11T14:23:11.650Z,101640.42
2019-02-11T14:25:45.906Z,101642.54
2019-02-11T14:28:10.377Z,101645.61
2019-02-11T14:30:40.481Z,101676.25
2019-02-11T14:33:09.770Z,101669.92
2019-02-11T14:35:39.195Z,101696.55
2019-02-11T14:38:08.479Z,101692.45
2019-02-11T14:40:37.898Z,101690.38
2019-02-11T14:43:07.133Z,101740.72
2019-02-11T14:45:36.443Z,101707.87
2019-02-11T14:48:05.866Z,101703.15
2019-02-11T14:50:35.266Z,101727.08
2019-02-11T14:53:04.648Z,101732.56
2019-02-11T14:55:34.330Z,101750.58
2019-02-11T14:58:03.704Z,101770.47
2019-02-11T15:00:33.071Z,101743.42
2019-02-11T15:03:02.408Z,101762.92
2019-02-11T15:05:31.792Z,101757.34
2019-02-11T15:08:01.048Z,101755.42
2019-02-11T15:10:30.399Z,101760.95
2019-02-11T15:12:59.726Z,101775.61
2019-02-11T15:15:29.310Z,101761.47
2019-02-11T15:17:58.810Z,101778.75
2019-02-11T15:20:28.236Z,101782.96
2019-02-11T15:22:57.505Z,101787.08
2019-02-11T15:25:26.797Z,101793.69
2019-02-11T15:27:56.093Z,101791.06
2019-02-11T15:30:25.436Z,101781.46
2019-02-11T15:32:54.767Z,101788.89
2019-02-11T15:35:24.093Z,101803.80
2019-02-11T15:37:53.376Z,101808.16
2019-02-11T15:40:23.117Z,101820.88
2019-02-11T15:42:52.387Z,101821.31
2019-02-11T15:45:21.682Z,101835.84
2019-02-11T15:47:51.045Z,101839.83
2019-02-11T15:50:20.381Z,101840.69
2019-02-11T15:52:49.714Z,101851.27
2019-02-11T15:55:19.304Z,101839.02
2019-02-11T15:57:48.643Z,101861.82
2019-02-11T16:00:19.665Z,101873.23
2019-02-11T16:02:48.998Z,101880.67
2019-02-11T16:05:18.317Z,101899.12
2019-02-11T16:07:47.686Z,101909.19
2019-02-11T16:10:19.026Z,101903.52
2019-02-11T16:12:48.316Z,101912.28
2019-02-11T16:15:19.209Z,101910.95
2019-02-11T16:17:46.833Z,101925.00
2019-02-11T16:20:16.089Z,101925.42
2019-02-11T16:22:45.445Z,101940.32
2019-02-11T16:25:14.751Z,101948.21
2019-02-11T16:27:44.172Z,101963.53
2019-02-11T16:30:15.365Z,101972.73
2019-02-11T16:32:44.726Z,101974.48
2019-02-11T16:35:14.793Z,101988.06
2019-02-11T16:37:44.085Z,101993.33
2019-02-11T16:40:16.085Z,101996.79
2019-02-11T16:42:45.352Z,102009.05
2019-02-11T16:45:14.633Z,102018.70
2019-02-11T16:47:43.985Z,102027.91
2019-02-11T16:50:13.266Z,102036.19
2019-02-11T16:52:42.668Z,102043.64
2019-02-11T16:55:11.960Z,102062.02
2019-02-11T16:57:41.229Z,102079.99
2019-02-11T17:00:12.743Z,102069.48
2019-02-11T17:02:42.031Z,102091.80
2019-02-11T17:05:11.347Z,102090.89
2019-02-11T17:07:42.210Z,102104.02
2019-02-11T17:10:10.867Z,102104.02
2019-02-11T17:12:40.163Z,102116.25
2019-02-11T17:15:11.613Z,102124.11
2019-02-11T17:17:40.909Z,102134.63
2019-02-11T17:20:11.036Z,102138.11
2019-02-11T17:22:40.278Z,102147.74
2019-02-11T17:25:09.816Z,102163.97
2019-02-11T17:27:39.173Z,102153.88
2019-02-11T17:30:11.513Z,102160.47
2019-02-11T17:32:40.811Z,102166.17
2019-02-11T17:35:10.225Z,102166.63
2019-02-11T17:37:39.517Z,102179.30
2019-02-11T17:40:11.631Z,102174.95
2019-02-11T17:42:39.039Z,102185.86
2019-02-11T17:45:12.367Z,102188.93
2019-02-11T17:47:41.647Z,102203.83
2019-02-11T17:50:11.252Z,102205.59
2019-02-11T17:52:40.537Z,102215.69
2019-02-11T17:55:10.657Z,102237.16
2019-02-11T17:57:39.979Z,102243.69
2019-02-11T18:00:12.751Z,102263.23
2019-02-11T18:02:42.061Z,102253.13
2019-02-11T18:05:11.339Z,102258.32
2019-02-11T18:07:40.585Z,102267.87
2019-02-11T18:10:09.836Z,102269.08
2019-02-11T18:12:39.180Z,102274.77
2019-02-11T18:15:08.809Z,102275.56
2019-02-11T18:17:38.077Z,102289.09
2019-02-11T18:20:07.482Z,102283.82
2019-02-11T18:22:36.790Z,102300.85
2019-02-11T18:25:06.157Z,102292.13
2019-02-11T18:27:35.524Z,102295.17
2019-02-11T18:30:05.059Z,102289.89
2019-02-11T18:32:34.393Z,102289.98
2019-02-11T18:35:03.775Z,102288.63
2019-02-11T18:37:33.069Z,102293.06
2019-02-11T18:40:02.378Z,102291.36
2019-02-11T18:42:31.711Z,102293.16
2019-02-11T18:45:01.018Z,102305.89
2019-02-11T18:47:30.281Z,102310.73
2019-02-11T18:49:59.513Z,102312.90
2019-02-11T18:52:28.809Z,102316.39
2019-02-11T18:54:58.081Z,102311.53
2019-02-11T18:57:27.392Z,102309.34
2019-02-11T18:59:56.709Z,102299.80
2019-02-11T19:02:25.985Z,102303.25
2019-02-11T19:04:55.303Z,102297.07
2019-02-11T19:07:24.582Z,102303.63
2019-02-11T19:09:53.898Z,102305.89
2019-02-11T19:12:23.127Z,102312.92
2019-02-11T19:14:52.379Z,102322.55
2019-02-11T19:17:21.813Z,102330.41
2019-02-11T19:19:51.105Z,102329.11
2019-02-11T19:22:22.293Z,102340.02
2019-02-11T19:24:49.908Z,102336.95
2019-02-11T19:27:19.161Z,102358.83
2019-02-11T19:29:48.443Z,102350.05
2019-02-11T19:32:17.714Z,102373.64
2019-02-11T19:34:47.156Z,102355.27
2019-02-11T19:37:16.404Z,102379.80
2019-02-11T19:39:45.669Z,102381.98
2019-02-11T19:42:15.000Z,102397.32
2019-02-11T19:44:44.283Z,102386.88
2019-02-11T19:47:32.877Z,102389.47
2019-02-11T19:50:02.092Z,102393.35
2019-02-11T19:52:31.383Z,102401.66
2019-02-11T19:55:00.671Z,102406.98
2019-02-11T19:57:29.955Z,102412.55
2019-02-11T19:59:59.428Z,102414.33
2019-02-11T20:02:29.608Z,102412.14
2019-02-11T20:04:58.949Z,102426.11
2019-02-11T20:07:28.397Z,102419.95
2019-02-11T20:09:57.707Z,102425.98
2019-02-11T20:12:27.117Z,102427.29
2019-02-11T20:14:59.938Z,102435.12
2019-02-11T20:17:29.318Z,102436.84
2019-02-11T20:20:00.361Z,102438.52
2019-02-11T20:22:27.922Z,102457.26
2019-02-11T20:24:57.290Z,102442.36
2019-02-11T20:27:26.613Z,102444.14
2019-02-11T20:29:55.836Z,102452.02
2019-02-11T20:32:25.451Z,102438.89
2019-02-11T20:34:54.825Z,102452.85
2019-02-11T20:37:24.067Z,102452.81
2019-02-11T20:39:53.286Z,102444.11
2019-02-11T20:42:24.403Z,102450.23
2019-02-11T20:44:53.737Z,102444.55
2019-02-11T20:47:22.960Z,102441.08
2019-02-11T20:49:52.201Z,102444.98
2019-02-11T20:52:21.449Z,102453.36
2019-02-11T20:54:50.736Z,102453.73
2019-02-11T20:57:20.057Z,102455.03
2019-02-11T20:59:49.463Z,102458.47
2019-02-11T21:02:18.538Z,102460.28
2019-02-11T21:04:47.938Z,102481.67
2019-02-11T21:07:17.247Z,102483.45
2019-02-11T21:09:46.755Z,102497.01
2019-02-11T21:12:16.096Z,102500.87
2019-02-11T21:14:45.335Z,102517.55
2019-02-11T21:17:14.571Z,102510.56
2019-02-11T21:19:43.849Z,102513.10
2019-02-11T21:22:13.119Z,102523.20
2019-02-11T21:24:42.329Z,102529.73
2019-02-11T21:27:12.023Z,102546.45
2019-02-11T21:29:41.253Z,102547.77
2019-02-11T21:32:10.619Z,102535.44
2019-02-11T21:34:43.679Z,102533.80
2019-02-11T21:37:12.980Z,102545.98
2019-02-11T21:39:42.232Z,102559.09
2019-02-11T21:42:11.582Z,102544.22
2019-02-11T21:44:40.859Z,102538.11
2019-02-11T21:47:10.094Z,102539.42
2019-02-11T21:49:39.353Z,102544.66
2019-02-11T21:52:08.665Z,102534.17
2019-02-11T21:54:37.921Z,102551.18
2019-02-11T21:57:26.728Z,102552.97
2019-02-11T21:59:55.981Z,102547.25
2019-02-11T22:02:25.326Z,102546.81
2019-02-11T22:04:54.635Z,102542.95
2019-02-11T22:07:23.928Z,102544.22
2019-02-11T22:09:53.234Z,102544.70
2019-02-11T22:12:22.461Z,102559.48
2019-02-11T22:14:51.759Z,102543.78
2019-02-11T22:17:21.003Z,102533.33
2019-02-11T22:19:50.243Z,102552.49
2019-02-11T22:22:19.533Z,102551.66
2019-02-11T22:24:48.791Z,102567.39
2019-02-11T22:27:18.037Z,102568.23
2019-02-11T22:29:47.337Z,102578.28
2019-02-11T22:32:16.638Z,102574.83
2019-02-11T22:34:45.943Z,102580.08
2019-02-11T22:37:15.183Z,102563.11
2019-02-11T22:39:44.377Z,102587.16
2019-02-11T22:42:13.649Z,102593.31
2019-02-11T22:44:42.941Z,102584.12
2019-02-11T22:47:12.247Z,102591.01
2019-02-11T22:49:41.634Z,102601.10
2019-02-11T22:52:10.881Z,102605.44
2019-02-11T22:54:40.235Z,102605.44
2019-02-11T22:57:09.541Z,102592.28
2019-02-11T22:59:38.790Z,102605.36
2019-02-11T23:02:08.028Z,102610.12
2019-02-11T23:04:37.329Z,102607.05
2019-02-11T23:07:06.574Z,102614.09
2019-02-11T23:09:35.807Z,102629.04
2019-02-11T23:12:05.080Z,102642.59
2019-02-11T23:14:34.341Z,102647.49
2019-02-11T23:17:03.651Z,102633.11
2019-02-11T23:19:32.937Z,102630.96
2019-02-11T23:22:02.162Z,102626.59
2019-02-11T23:24:31.412Z,102634.98
2019-02-11T23:27:00.753Z,102633.67
2019-02-11T23:29:30.053Z,102622.27
2019-02-11T23:31:59.289Z,102627.59
2019-02-11T23:34:28.547Z,102623.22
2019-02-11T23:36:57.803Z,102642.06
2019-02-11T23:39:27.242Z,102628.15
2019-02-11T23:41:56.540Z,102633.83
2019-02-11T23:44:25.837Z,102630.81
2019-02-11T23:46:55.060Z,102641.39
2019-02-11T23:49:24.390Z,102637.42
2019-02-11T23:51:53.629Z,102640.47
2019-02-11T23:54:23.007Z,102644.85
2019-02-11T23:56:52.243Z,102649.23
2019-02-11T23:59:21.593Z,102656.22
